SBOSBO GLA / EGPF
Speedbird OnlineSpeedbird Online GLA / EGPF

Glasgow International Airport
22:04 9.3°C

Location Glasgow, United Kingdom
Latitude: 55.8718986511
Longitude: -4.43306016922
Local Time 22:04 on 18 Apr 2024
UTC +1 hours (Europe/London)
METAR EGPF 182050Z AUTO 25010KT 9999 BKN038 09/07 Q1013
TAF TAF AMD EGPF 181926Z 1819/1918 25012KT 9999 SCT025 TEMPO 1819/1821 8000 -RA BKN014 PROB30 TEMPO 1819/1824 28015G25KT PROB30 TEMPO 1821/1906 8000 -SHRA BECMG 1902/1905 31012KT BECMG 1910/1913 01009KT
Weather As Of 18 Apr 2024 22:04
Description Broken clouds
Wind 19 km/h from West (250°)
Cloud Cover 75%
Precipitation Rain: none, Snow: none
Sunrise 06:03
Sunset 20:29
NOTAM 13 active NOTAM
Rotations During the last 90 days there were
739 flights from LHR
311 flights from LCY
79 flights from LGW
62 flights from LSI
7 flights from
5 flights from GLA
1 flights from AMS
745 flights to LHR
314 flights to LCY
77 flights to LGW
6 flights to BEB
5 flights to GLA
1 flights to DUB
Lounges British Airways Lounge, Main Terminal
Web Airport Website | Wikipedia
Codes IATA: GLA
ICAO: EGPF
Altitude 8 Meter / 26 Feet
Distance 570 KM / 354 Miles
from London.
Runways
RunwayLength (m)Surface
052665Asphalt
091104Asphalt
232665Asphalt
271104Asphalt
Radio
TypeDescriptionFrequency
ACCSHANWICK OCEANIC120.35
APPAPP119.1
ATISATIS129.575
GNDGND121.705
TWRGlasgow Tower118.805
Live ATC



Support Speedbird Online

© 2017-2024 Speedbird Online